createdAt,value
2018-04-24T00:00:43.282Z,0.00
2018-04-24T00:01:43.210Z,0.00
2018-04-24T00:02:43.136Z,0.00
2018-04-24T00:03:43.063Z,0.00
2018-04-24T00:04:42.989Z,0.00
2018-04-24T00:05:42.916Z,0.00
2018-04-24T00:06:42.841Z,0.00
2018-04-24T00:07:42.769Z,0.00
2018-04-24T00:08:42.695Z,0.00
2018-04-24T00:09:42.623Z,0.00
2018-04-24T00:10:42.548Z,0.00
2018-04-24T00:11:42.475Z,0.00
2018-04-24T00:12:42.402Z,0.00
2018-04-24T00:13:42.332Z,0.00
2018-04-24T00:14:42.258Z,0.00
2018-04-24T00:15:42.182Z,0.00
2018-04-24T00:16:42.109Z,0.00
2018-04-24T00:17:42.035Z,0.00
2018-04-24T00:18:41.961Z,0.00
2018-04-24T00:19:41.889Z,0.00
2018-04-24T00:20:41.816Z,0.00
2018-04-24T00:21:41.741Z,0.00
2018-04-24T00:22:41.668Z,0.00
2018-04-24T00:23:41.595Z,0.00
2018-04-24T00:24:41.521Z,0.00
2018-04-24T00:25:41.448Z,0.00
2018-04-24T00:26:41.375Z,0.00
2018-04-24T00:27:41.301Z,0.00
2018-04-24T00:28:41.228Z,0.00
2018-04-24T00:29:41.154Z,0.00
2018-04-24T00:30:41.082Z,0.00
2018-04-24T00:31:41.008Z,0.00
2018-04-24T00:32:40.934Z,0.00
2018-04-24T00:33:40.861Z,0.00
2018-04-24T00:34:40.787Z,0.00
2018-04-24T00:35:40.714Z,0.00
2018-04-24T00:36:40.640Z,0.00
2018-04-24T00:37:40.567Z,0.00
2018-04-24T00:38:40.496Z,0.00
2018-04-24T00:39:40.420Z,0.00
2018-04-24T00:40:40.347Z,0.00
2018-04-24T00:41:40.272Z,0.00
2018-04-24T00:42:40.199Z,0.00
2018-04-24T00:43:40.126Z,0.00
2018-04-24T00:44:40.055Z,0.00
2018-04-24T00:45:39.978Z,0.00
2018-04-24T00:46:39.904Z,0.00
2018-04-24T00:47:39.833Z,0.00
2018-04-24T00:48:39.757Z,0.00
2018-04-24T00:49:39.683Z,0.00
2018-04-24T00:50:39.610Z,0.00
2018-04-24T00:51:39.535Z,0.00
2018-04-24T00:52:39.462Z,0.00
2018-04-24T00:53:39.392Z,0.00
2018-04-24T00:54:39.315Z,0.00
2018-04-24T00:55:39.241Z,0.00
2018-04-24T00:56:39.166Z,0.00
2018-04-24T00:57:39.094Z,0.00
2018-04-24T00:58:39.023Z,0.00
2018-04-24T00:59:38.945Z,0.00
2018-04-24T01:00:38.871Z,0.00
2018-04-24T01:01:38.798Z,0.00
2018-04-24T01:02:38.724Z,0.00
2018-04-24T01:03:38.649Z,0.00
2018-04-24T01:04:38.577Z,0.00
2018-04-24T01:05:38.503Z,0.00
2018-04-24T01:06:38.464Z,0.00
2018-04-24T01:07:38.355Z,0.00
2018-04-24T01:08:38.280Z,0.00
2018-04-24T01:09:38.207Z,0.00
2018-04-24T01:10:38.132Z,0.00
2018-04-24T01:11:38.059Z,0.00
2018-04-24T01:12:37.985Z,0.00
2018-04-24T01:13:37.911Z,0.00
2018-04-24T01:14:37.839Z,0.00
2018-04-24T01:15:37.763Z,0.00
2018-04-24T01:16:37.690Z,0.00
2018-04-24T01:17:37.618Z,0.00
2018-04-24T01:18:37.542Z,0.00
2018-04-24T01:19:37.468Z,0.00
2018-04-24T01:20:37.395Z,0.00
2018-04-24T01:21:37.319Z,0.00
2018-04-24T01:22:37.244Z,0.00
2018-04-24T01:23:37.170Z,0.00
2018-04-24T01:24:37.097Z,0.00
2018-04-24T01:25:37.022Z,0.00
2018-04-24T01:26:36.947Z,0.00
2018-04-24T01:27:36.874Z,0.00
2018-04-24T01:28:36.800Z,0.00
2018-04-24T01:29:36.725Z,0.00
2018-04-24T01:30:36.651Z,0.00
2018-04-24T01:31:36.578Z,0.00
2018-04-24T01:32:36.504Z,0.00
2018-04-24T01:33:36.428Z,0.00
2018-04-24T01:34:36.356Z,0.00
2018-04-24T01:35:36.282Z,0.00
2018-04-24T01:36:36.206Z,0.00
2018-04-24T01:37:36.132Z,0.00
2018-04-24T01:38:36.057Z,0.00
2018-04-24T01:39:35.983Z,0.00
2018-04-24T01:40:35.909Z,0.00
2018-04-24T01:41:35.833Z,0.00
2018-04-24T01:42:35.760Z,0.00
2018-04-24T01:43:35.685Z,0.00
2018-04-24T01:44:35.615Z,0.00
2018-04-24T01:45:35.540Z,0.00
2018-04-24T01:46:35.462Z,0.00
2018-04-24T01:47:35.389Z,0.00
2018-04-24T01:48:35.315Z,0.00
2018-04-24T01:49:35.240Z,0.00
2018-04-24T01:50:35.164Z,0.00
2018-04-24T01:51:35.090Z,0.00
2018-04-24T01:52:35.016Z,0.00
2018-04-24T01:53:34.942Z,0.00
2018-04-24T01:54:34.866Z,0.00
2018-04-24T01:55:34.793Z,0.00
2018-04-24T01:56:34.719Z,0.00
2018-04-24T01:57:34.644Z,0.00
2018-04-24T01:58:34.570Z,0.00
2018-04-24T01:59:34.500Z,0.00
2018-04-24T02:00:34.420Z,0.00
2018-04-24T02:01:34.346Z,0.00
2018-04-24T02:02:34.271Z,0.00
2018-04-24T02:03:34.198Z,0.00
2018-04-24T02:04:34.123Z,0.00
2018-04-24T02:05:34.048Z,0.00
2018-04-24T02:06:33.977Z,0.00
2018-04-24T02:07:33.899Z,0.00
2018-04-24T02:08:33.826Z,0.00
2018-04-24T02:09:33.749Z,0.00
2018-04-24T02:10:33.680Z,0.00
2018-04-24T02:11:33.601Z,0.00
2018-04-24T02:12:33.528Z,0.00
2018-04-24T02:13:33.452Z,0.00
2018-04-24T02:14:33.378Z,0.00
2018-04-24T02:15:33.306Z,0.00
2018-04-24T02:16:33.228Z,0.00
2018-04-24T02:17:33.153Z,0.00
2018-04-24T02:18:33.079Z,0.00
2018-04-24T02:19:33.004Z,0.00
2018-04-24T02:20:32.929Z,0.00
2018-04-24T02:21:32.858Z,0.00
2018-04-24T02:22:32.784Z,0.00
2018-04-24T02:23:32.706Z,0.00
2018-04-24T02:24:32.631Z,0.00
2018-04-24T02:25:32.558Z,0.00
2018-04-24T02:26:32.482Z,0.00
2018-04-24T02:27:32.408Z,0.00
2018-04-24T02:28:32.332Z,0.00
2018-04-24T02:29:32.256Z,0.00
2018-04-24T02:30:32.183Z,0.00
2018-04-24T02:31:32.109Z,0.00
2018-04-24T02:32:32.034Z,0.00
2018-04-24T02:33:31.967Z,0.00
2018-04-24T02:34:31.885Z,0.00
2018-04-24T02:35:31.812Z,0.00
2018-04-24T02:36:31.735Z,0.00
2018-04-24T02:37:31.659Z,0.00
2018-04-24T02:38:31.585Z,0.00
2018-04-24T02:39:31.513Z,0.00
2018-04-24T02:40:31.506Z,0.00
2018-04-24T02:41:31.361Z,0.00
2018-04-24T02:42:31.287Z,0.00
2018-04-24T02:43:31.218Z,0.00
2018-04-24T02:44:31.138Z,0.00
2018-04-24T02:45:31.063Z,0.00
2018-04-24T02:46:30.987Z,0.00
2018-04-24T02:47:30.913Z,0.00
2018-04-24T02:48:30.843Z,0.00
2018-04-24T02:49:30.763Z,0.00
2018-04-24T02:50:30.688Z,0.00
2018-04-24T02:51:30.619Z,0.00
2018-04-24T02:52:30.539Z,0.00
2018-04-24T02:53:30.464Z,0.00
2018-04-24T02:54:30.389Z,0.00
2018-04-24T02:55:30.315Z,0.00
2018-04-24T02:56:30.238Z,0.00
2018-04-24T02:57:30.164Z,0.00
2018-04-24T02:58:30.089Z,0.00
2018-04-24T02:59:30.015Z,0.00
2018-04-24T03:00:29.940Z,0.00
2018-04-24T03:01:29.864Z,0.00
2018-04-24T03:02:29.789Z,0.00
2018-04-24T03:03:29.718Z,0.00
2018-04-24T03:04:29.640Z,0.00
2018-04-24T03:05:29.565Z,0.00
2018-04-24T03:06:29.489Z,0.00
2018-04-24T03:07:29.415Z,0.00
2018-04-24T03:08:29.341Z,0.00
2018-04-24T03:09:29.268Z,0.00
2018-04-24T03:10:29.191Z,0.00
2018-04-24T03:11:29.119Z,0.00
2018-04-24T03:12:29.042Z,0.00
2018-04-24T03:13:28.969Z,0.00
2018-04-24T03:14:28.892Z,0.00
2018-04-24T03:15:28.820Z,0.00
2018-04-24T03:16:28.742Z,0.00
2018-04-24T03:17:28.667Z,0.00
2018-04-24T03:18:28.593Z,0.00
2018-04-24T03:19:28.518Z,0.00
2018-04-24T03:20:28.442Z,0.00
2018-04-24T03:21:28.370Z,0.00
2018-04-24T03:22:28.292Z,0.00
2018-04-24T03:23:28.218Z,0.00
2018-04-24T03:24:28.144Z,0.00
2018-04-24T03:25:28.069Z,0.00
2018-04-24T03:26:27.996Z,0.00
2018-04-24T03:27:27.919Z,0.00
2018-04-24T03:28:27.844Z,0.00
2018-04-24T03:29:27.769Z,0.00
2018-04-24T03:30:27.699Z,0.00
2018-04-24T03:31:27.620Z,0.00
2018-04-24T03:32:27.547Z,0.00
2018-04-24T03:33:27.471Z,0.00
2018-04-24T03:34:27.397Z,0.00
2018-04-24T03:35:27.321Z,0.00
2018-04-24T03:36:27.249Z,0.00
2018-04-24T03:37:27.173Z,0.00
2018-04-24T03:38:27.098Z,0.00
2018-04-24T03:39:27.022Z,0.00
2018-04-24T03:40:26.948Z,0.00
2018-04-24T03:41:26.872Z,0.00
2018-04-24T03:42:26.797Z,0.00
2018-04-24T03:43:26.724Z,0.00
2018-04-24T03:44:26.648Z,0.00
2018-04-24T03:45:26.572Z,0.00
2018-04-24T03:46:26.499Z,0.00
2018-04-24T03:47:26.424Z,0.00
2018-04-24T03:48:26.352Z,0.00
2018-04-24T03:49:26.275Z,0.00
2018-04-24T03:50:26.198Z,0.00
2018-04-24T03:51:26.123Z,0.00
2018-04-24T03:52:26.049Z,0.00
2018-04-24T03:53:25.975Z,0.00
2018-04-24T03:54:25.898Z,0.00
2018-04-24T03:55:25.824Z,0.00
2018-04-24T03:56:25.750Z,0.00
2018-04-24T03:57:25.673Z,0.00
2018-04-24T03:58:25.598Z,0.00
2018-04-24T03:59:25.523Z,0.00
2018-04-24T04:00:25.449Z,0.00
2018-04-24T04:01:25.374Z,0.00
2018-04-24T04:02:25.297Z,0.00
2018-04-24T04:03:25.223Z,0.00
2018-04-24T04:04:25.148Z,0.00
2018-04-24T04:05:25.072Z,0.00
2018-04-24T04:06:24.997Z,0.00
2018-04-24T04:07:24.922Z,0.00
2018-04-24T04:08:24.847Z,0.00
2018-04-24T04:09:24.786Z,0.00
2018-04-24T04:10:24.696Z,0.00
2018-04-24T04:11:24.626Z,0.00
2018-04-24T04:12:24.546Z,0.00
2018-04-24T04:13:24.475Z,0.00
2018-04-24T04:14:24.396Z,0.00
2018-04-24T04:15:24.320Z,5.63
2018-04-24T04:16:24.245Z,5.63
2018-04-24T04:17:24.168Z,5.63
2018-04-24T04:18:24.093Z,5.63
2018-04-24T04:19:24.018Z,5.63
2018-04-24T04:20:23.943Z,5.63
2018-04-24T04:21:23.869Z,5.63
2018-04-24T04:22:23.835Z,5.63
2018-04-24T04:23:23.718Z,11.25
2018-04-24T04:24:23.643Z,11.25
2018-04-24T04:25:23.571Z,11.25
2018-04-24T04:26:23.491Z,11.25
2018-04-24T04:27:23.417Z,11.25
2018-04-24T04:28:23.340Z,11.25
2018-04-24T04:29:23.268Z,11.25
2018-04-24T04:30:23.188Z,16.88
2018-04-24T04:31:23.116Z,16.88
2018-04-24T04:32:23.039Z,16.88
2018-04-24T04:33:22.963Z,16.88
2018-04-24T04:34:22.890Z,16.88
2018-04-24T04:35:22.813Z,16.88
2018-04-24T04:36:22.742Z,16.88
2018-04-24T04:37:22.661Z,22.50
2018-04-24T04:38:22.588Z,22.50
2018-04-24T04:39:22.513Z,22.50
2018-04-24T04:40:22.437Z,22.50
2018-04-24T04:41:22.363Z,22.50
2018-04-24T04:42:22.286Z,22.50
2018-04-24T04:43:22.211Z,28.13
2018-04-24T04:44:22.143Z,28.13
2018-04-24T04:45:22.060Z,28.13
2018-04-24T04:46:21.986Z,28.13
2018-04-24T04:47:21.911Z,28.13
2018-04-24T04:48:21.836Z,28.13
2018-04-24T04:49:21.760Z,33.75
2018-04-24T04:50:21.686Z,33.75
2018-04-24T04:51:21.610Z,33.75
2018-04-24T04:52:21.535Z,33.75
2018-04-24T04:53:21.457Z,39.38
2018-04-24T04:54:21.384Z,39.38
2018-04-24T04:55:21.309Z,39.38
2018-04-24T04:56:21.237Z,45.00
2018-04-24T04:57:21.158Z,45.00
2018-04-24T04:58:21.082Z,45.00
2018-04-24T04:59:21.007Z,45.00
2018-04-24T05:00:20.933Z,50.63
2018-04-24T05:01:20.855Z,50.63
2018-04-24T05:02:20.781Z,56.25
2018-04-24T05:03:20.706Z,56.25
2018-04-24T05:04:20.630Z,50.63
2018-04-24T05:05:20.635Z,50.63
2018-04-24T05:06:20.480Z,50.63
2018-04-24T05:07:20.404Z,50.63
2018-04-24T05:08:20.329Z,50.63
2018-04-24T05:09:20.253Z,50.63
2018-04-24T05:10:20.178Z,56.25
2018-04-24T05:11:20.104Z,56.25
2018-04-24T05:12:20.029Z,56.25
2018-04-24T05:13:19.951Z,56.25
2018-04-24T05:14:19.877Z,56.25
2018-04-24T05:15:19.802Z,61.88
2018-04-24T05:16:20.026Z,61.88
2018-04-24T05:17:19.650Z,61.88
2018-04-24T05:18:19.575Z,67.50
2018-04-24T05:19:19.502Z,67.50
2018-04-24T05:20:19.425Z,67.50
2018-04-24T05:21:19.349Z,73.13
2018-04-24T05:22:19.275Z,73.13
2018-04-24T05:23:19.200Z,73.13
2018-04-24T05:24:19.126Z,78.75
2018-04-24T05:25:19.050Z,78.75
2018-04-24T05:26:18.975Z,78.75
2018-04-24T05:27:18.901Z,84.38
2018-04-24T05:28:18.827Z,84.38
2018-04-24T05:29:18.752Z,84.38
2018-04-24T05:30:18.678Z,84.38
2018-04-24T05:31:18.606Z,84.38
2018-04-24T05:32:18.528Z,84.38
2018-04-24T05:33:18.456Z,90.00
2018-04-24T05:34:18.379Z,90.00
2018-04-24T05:35:18.304Z,90.00
2018-04-24T05:36:18.231Z,84.38
2018-04-24T05:37:18.155Z,84.38
2018-04-24T05:38:18.080Z,90.00
2018-04-24T05:39:18.007Z,90.00
2018-04-24T05:40:17.932Z,90.00
2018-04-24T05:41:17.858Z,90.00
2018-04-24T05:42:17.784Z,90.00
2018-04-24T05:43:17.710Z,90.00
2018-04-24T05:44:17.634Z,84.38
2018-04-24T05:45:17.630Z,90.00
2018-04-24T05:46:17.486Z,95.63
2018-04-24T05:47:17.411Z,90.00
2018-04-24T05:48:17.340Z,95.63
2018-04-24T05:49:17.263Z,95.63
2018-04-24T05:50:17.189Z,101.25
2018-04-24T05:51:17.113Z,101.25
2018-04-24T05:52:17.101Z,101.25
2018-04-24T05:53:16.971Z,101.25
2018-04-24T05:54:16.896Z,106.88
2018-04-24T05:55:16.820Z,106.88
2018-04-24T05:56:16.745Z,112.50
2018-04-24T05:57:16.670Z,106.88
2018-04-24T05:58:16.597Z,106.88
2018-04-24T05:59:16.536Z,106.88
2018-04-24T06:00:16.450Z,106.88
2018-04-24T06:01:16.375Z,106.88
2018-04-24T06:02:16.301Z,106.88
2018-04-24T06:03:16.229Z,106.88
2018-04-24T06:04:16.153Z,112.50
2018-04-24T06:05:16.079Z,106.88
2018-04-24T06:06:16.004Z,106.88
2018-04-24T06:07:15.931Z,112.50
2018-04-24T06:08:15.908Z,112.50
2018-04-24T06:09:15.782Z,112.50
2018-04-24T06:10:15.709Z,112.50
2018-04-24T06:11:15.637Z,112.50
2018-04-24T06:12:15.563Z,112.50
2018-04-24T06:13:15.489Z,112.50
2018-04-24T06:14:15.415Z,118.13
2018-04-24T06:15:15.342Z,118.13
2018-04-24T06:16:15.268Z,118.13
2018-04-24T06:17:15.193Z,118.13
2018-04-24T06:18:15.120Z,118.13
2018-04-24T06:19:15.047Z,118.13
2018-04-24T06:20:14.975Z,118.13
2018-04-24T06:21:14.899Z,118.13
2018-04-24T06:22:14.829Z,112.50
2018-04-24T06:23:14.753Z,118.13
2018-04-24T06:24:14.680Z,118.13
2018-04-24T06:25:14.608Z,118.13
2018-04-24T06:26:14.533Z,129.38
2018-04-24T06:27:14.463Z,129.38
2018-04-24T06:28:14.386Z,129.38
2018-04-24T06:29:14.321Z,129.38
2018-04-24T06:30:14.239Z,140.63
2018-04-24T06:31:14.166Z,140.63
2018-04-24T06:32:14.094Z,140.63
2018-04-24T06:33:14.019Z,135.00
2018-04-24T06:34:13.948Z,140.63
2018-04-24T06:35:13.874Z,140.63
2018-04-24T06:36:13.801Z,146.25
2018-04-24T06:37:13.727Z,157.50
2018-04-24T06:38:13.653Z,151.88
2018-04-24T06:39:13.581Z,157.50
2018-04-24T06:40:13.508Z,163.13
2018-04-24T06:41:13.434Z,168.75
2018-04-24T06:42:13.371Z,168.75
2018-04-24T06:43:13.290Z,174.38
2018-04-24T06:44:13.217Z,174.38
2018-04-24T06:45:13.144Z,180.00
2018-04-24T06:46:13.069Z,180.00
2018-04-24T06:47:12.996Z,185.63
2018-04-24T06:48:12.924Z,185.63
2018-04-24T06:49:12.849Z,191.25
2018-04-24T06:50:12.778Z,191.25
2018-04-24T06:51:12.704Z,191.25
2018-04-24T06:52:12.631Z,196.88
2018-04-24T06:53:12.559Z,191.25
2018-04-24T06:54:12.490Z,196.88
2018-04-24T06:55:12.412Z,196.88
2018-04-24T06:56:12.340Z,191.25
2018-04-24T06:57:12.268Z,191.25
2018-04-24T06:58:12.194Z,191.25
2018-04-24T06:59:12.122Z,196.88
2018-04-24T07:00:12.050Z,191.25
2018-04-24T07:01:11.979Z,185.63
2018-04-24T07:02:11.905Z,180.00
2018-04-24T07:03:11.830Z,185.63
2018-04-24T07:04:11.758Z,180.00
2018-04-24T07:05:11.687Z,180.00
2018-04-24T07:06:11.612Z,174.38
2018-04-24T07:07:11.541Z,180.00
2018-04-24T07:08:11.469Z,174.38
2018-04-24T07:09:11.394Z,174.38
2018-04-24T07:10:11.322Z,174.38
2018-04-24T07:11:11.249Z,174.38
2018-04-24T07:12:11.179Z,180.00
2018-04-24T07:13:11.106Z,174.38
2018-04-24T07:14:11.032Z,174.38
2018-04-24T07:15:10.961Z,168.75
2018-04-24T07:16:10.888Z,163.13
2018-04-24T07:17:10.815Z,163.13
2018-04-24T07:18:10.742Z,163.13
2018-04-24T07:19:10.670Z,163.13
2018-04-24T07:20:10.598Z,163.13
2018-04-24T07:21:10.525Z,168.75
2018-04-24T07:22:10.456Z,174.38
2018-04-24T07:23:10.388Z,174.38
2018-04-24T07:24:10.312Z,185.63
2018-04-24T07:25:10.234Z,196.88
2018-04-24T07:26:10.161Z,196.88
2018-04-24T07:27:10.162Z,191.25
2018-04-24T07:28:10.017Z,202.50
2018-04-24T07:29:09.945Z,219.38
2018-04-24T07:30:09.873Z,208.13
2018-04-24T07:31:09.801Z,213.75
2018-04-24T07:32:09.728Z,219.38
2018-04-24T07:33:09.656Z,202.50
2018-04-24T07:34:09.584Z,202.50
2018-04-24T07:35:09.512Z,202.50
2018-04-24T07:36:09.442Z,202.50
2018-04-24T07:37:09.370Z,202.50
2018-04-24T07:38:09.294Z,208.13
2018-04-24T07:39:09.222Z,208.13
2018-04-24T07:40:09.151Z,202.50
2018-04-24T07:41:09.156Z,208.13
2018-04-24T07:42:09.006Z,213.75
2018-04-24T07:43:08.934Z,213.75
2018-04-24T07:44:08.862Z,219.38
2018-04-24T07:45:08.789Z,219.38
2018-04-24T07:46:08.718Z,219.38
2018-04-24T07:47:08.647Z,225.00
2018-04-24T07:48:08.575Z,230.63
2018-04-24T07:49:08.501Z,230.63
2018-04-24T07:50:08.430Z,264.38
2018-04-24T07:51:08.357Z,315.00
2018-04-24T07:52:08.288Z,331.88
2018-04-24T07:53:08.215Z,360.00
2018-04-24T07:54:08.147Z,365.63
2018-04-24T07:55:08.070Z,360.00
2018-04-24T07:56:08.002Z,331.88
2018-04-24T07:57:07.927Z,371.25
2018-04-24T07:58:07.854Z,348.75
2018-04-24T07:59:07.784Z,371.25
2018-04-24T08:00:07.712Z,348.75
2018-04-24T08:01:07.639Z,360.00
2018-04-24T08:02:07.570Z,343.13
2018-04-24T08:03:07.496Z,354.38
2018-04-24T08:04:07.426Z,331.88
2018-04-24T08:05:07.356Z,331.88
2018-04-24T08:06:07.280Z,343.13
2018-04-24T08:07:07.211Z,331.88
2018-04-24T08:08:07.152Z,320.63
2018-04-24T08:09:07.067Z,320.63
2018-04-24T08:10:06.996Z,320.63
2018-04-24T08:11:06.925Z,343.13
2018-04-24T08:12:06.853Z,331.88
2018-04-24T08:13:06.782Z,326.25
2018-04-24T08:14:06.709Z,326.25
2018-04-24T08:15:06.643Z,326.25
2018-04-24T08:16:06.572Z,320.63
2018-04-24T08:17:06.496Z,331.88
2018-04-24T08:18:06.425Z,348.75
2018-04-24T08:19:06.353Z,343.13
2018-04-24T08:20:06.282Z,365.63
2018-04-24T08:21:06.211Z,360.00
2018-04-24T08:22:06.139Z,354.38
2018-04-24T08:23:06.068Z,360.00
2018-04-24T08:24:05.996Z,365.63
2018-04-24T08:25:06.000Z,382.50
2018-04-24T08:26:05.854Z,371.25
2018-04-24T08:27:05.783Z,388.13
2018-04-24T08:28:05.712Z,371.25
2018-04-24T08:29:05.640Z,348.75
2018-04-24T08:30:05.570Z,360.00
2018-04-24T08:31:05.497Z,360.00
2018-04-24T08:32:05.426Z,337.50
2018-04-24T08:33:05.355Z,337.50
2018-04-24T08:34:05.284Z,331.88
2018-04-24T08:35:05.212Z,331.88
2018-04-24T08:36:05.154Z,315.00
2018-04-24T08:37:05.070Z,286.88
2018-04-24T08:38:04.998Z,315.00
2018-04-24T08:39:04.973Z,264.38
2018-04-24T08:40:04.860Z,281.25
2018-04-24T08:41:04.791Z,315.00
2018-04-24T08:42:04.715Z,331.88
2018-04-24T08:43:04.643Z,275.63
2018-04-24T08:44:04.571Z,270.00
2018-04-24T08:45:04.500Z,315.00
2018-04-24T08:46:04.437Z,247.50
2018-04-24T08:47:04.362Z,315.00
2018-04-24T08:48:04.285Z,315.00
2018-04-24T08:49:04.218Z,275.63
2018-04-24T08:50:04.146Z,253.13
2018-04-24T08:51:04.072Z,258.75
2018-04-24T08:52:04.000Z,270.00
2018-04-24T08:53:03.927Z,247.50
2018-04-24T08:54:03.856Z,292.50
2018-04-24T08:55:03.789Z,292.50
2018-04-24T08:56:04.017Z,292.50
2018-04-24T08:57:03.641Z,315.00
2018-04-24T08:58:03.571Z,343.13
2018-04-24T08:59:03.500Z,337.50
2018-04-24T09:00:03.428Z,405.00
2018-04-24T09:01:03.356Z,433.13
2018-04-24T09:02:03.339Z,337.50
2018-04-24T09:03:03.213Z,393.75
2018-04-24T09:04:03.141Z,421.88
2018-04-24T09:05:03.068Z,416.25
2018-04-24T09:06:02.997Z,354.38
2018-04-24T09:07:02.925Z,343.13
2018-04-24T09:08:02.854Z,399.38
2018-04-24T09:09:02.783Z,360.00
2018-04-24T09:10:02.711Z,410.63
2018-04-24T09:11:02.638Z,399.38
2018-04-24T09:12:02.568Z,421.88
2018-04-24T09:13:02.495Z,433.13
2018-04-24T09:14:02.502Z,399.38
2018-04-24T09:15:02.352Z,371.25
2018-04-24T09:16:02.282Z,382.50
2018-04-24T09:17:02.211Z,388.13
2018-04-24T09:18:02.139Z,337.50
2018-04-24T09:19:02.069Z,365.63
2018-04-24T09:20:01.997Z,376.88
2018-04-24T09:21:01.926Z,337.50
2018-04-24T09:22:01.856Z,320.63
2018-04-24T09:23:01.785Z,376.88
2018-04-24T09:24:01.712Z,303.75
2018-04-24T09:25:01.640Z,281.25
2018-04-24T09:26:01.574Z,264.38
2018-04-24T09:27:01.524Z,264.38
2018-04-24T09:28:01.427Z,292.50
2018-04-24T09:29:01.355Z,337.50
2018-04-24T09:30:01.284Z,421.88
2018-04-24T09:31:01.213Z,399.38
2018-04-24T09:32:01.142Z,393.75
2018-04-24T09:33:01.073Z,427.50
2018-04-24T09:34:00.998Z,416.25
2018-04-24T09:35:01.007Z,405.00
2018-04-24T09:36:00.857Z,438.75
2018-04-24T09:37:00.786Z,455.63
2018-04-24T09:38:00.715Z,450.00
2018-04-24T09:39:00.661Z,483.75
2018-04-24T09:40:00.572Z,483.75
2018-04-24T09:41:00.501Z,450.00
2018-04-24T09:42:00.430Z,478.13
2018-04-24T09:43:00.359Z,478.13
2018-04-24T09:44:00.367Z,489.38
2018-04-24T09:45:00.218Z,478.13
2018-04-24T09:46:00.180Z,495.00
2018-04-24T09:47:00.078Z,534.38
2018-04-24T09:48:00.006Z,517.50
2018-04-24T09:49:00.022Z,534.38
2018-04-24T09:49:59.864Z,545.63
2018-04-24T09:50:59.794Z,556.88
2018-04-24T09:51:59.723Z,551.25
2018-04-24T09:52:59.656Z,556.88
2018-04-24T09:53:59.581Z,568.13
2018-04-24T09:54:59.509Z,573.75
2018-04-24T09:55:59.440Z,568.13
2018-04-24T09:56:59.368Z,562.50
2018-04-24T09:57:59.299Z,573.75
2018-04-24T09:58:59.228Z,585.00
2018-04-24T09:59:59.157Z,562.50
2018-04-24T10:00:59.087Z,568.13
2018-04-24T10:01:59.017Z,573.75
2018-04-24T10:02:58.948Z,590.63
2018-04-24T10:03:58.879Z,601.88
2018-04-24T10:04:58.805Z,590.63
2018-04-24T10:05:58.735Z,585.00
2018-04-24T10:06:58.665Z,579.38
2018-04-24T10:07:58.596Z,556.88
2018-04-24T10:08:58.524Z,556.88
2018-04-24T10:09:58.455Z,551.25
2018-04-24T10:10:58.386Z,556.88
2018-04-24T10:11:58.314Z,551.25
2018-04-24T10:12:58.246Z,562.50
2018-04-24T10:13:58.173Z,568.13
2018-04-24T10:14:58.107Z,579.38
2018-04-24T10:15:58.034Z,573.75
2018-04-24T10:16:57.965Z,568.13
2018-04-24T10:17:57.894Z,568.13
2018-04-24T10:18:57.824Z,579.38
2018-04-24T10:19:57.754Z,601.88
2018-04-24T10:20:57.683Z,585.00
2018-04-24T10:21:57.614Z,579.38
2018-04-24T10:22:57.543Z,585.00
2018-04-24T10:23:57.474Z,607.50
2018-04-24T10:24:57.403Z,579.38
2018-04-24T10:25:57.349Z,562.50
2018-04-24T10:26:57.268Z,568.13
2018-04-24T10:27:57.196Z,568.13
2018-04-24T10:28:57.125Z,551.25
2018-04-24T10:29:57.055Z,573.75
2018-04-24T10:30:56.986Z,585.00
2018-04-24T10:31:56.916Z,613.13
2018-04-24T10:32:56.846Z,630.00
2018-04-24T10:33:56.780Z,630.00
2018-04-24T10:34:56.708Z,641.25
2018-04-24T10:35:56.638Z,630.00
2018-04-24T10:36:56.568Z,624.38
2018-04-24T10:37:56.497Z,613.13
2018-04-24T10:38:56.430Z,618.75
2018-04-24T10:39:56.359Z,613.13
2018-04-24T10:40:56.291Z,613.13
2018-04-24T10:41:56.221Z,624.38
2018-04-24T10:42:56.152Z,686.25
2018-04-24T10:43:56.251Z,708.75
2018-04-24T10:44:56.012Z,663.75
2018-04-24T10:45:55.944Z,720.00
2018-04-24T10:46:55.872Z,720.00
2018-04-24T10:47:55.822Z,720.00
2018-04-24T10:48:55.733Z,725.63
2018-04-24T10:49:55.664Z,708.75
2018-04-24T10:50:55.596Z,736.88
2018-04-24T10:51:55.527Z,978.75
2018-04-24T10:52:55.456Z,720.00
2018-04-24T10:53:55.388Z,911.25
2018-04-24T10:54:55.319Z,680.63
2018-04-24T10:55:55.293Z,680.63
2018-04-24T10:56:55.178Z,691.88
2018-04-24T10:57:55.110Z,652.50
2018-04-24T10:58:55.042Z,635.63
2018-04-24T10:59:54.971Z,686.25
2018-04-24T11:00:54.903Z,725.63
2018-04-24T11:01:54.834Z,736.88
2018-04-24T11:02:54.764Z,776.25
2018-04-24T11:03:54.694Z,821.25
2018-04-24T11:04:54.626Z,793.13
2018-04-24T11:05:54.556Z,826.88
2018-04-24T11:06:54.486Z,736.88
2018-04-24T11:07:54.418Z,742.50
2018-04-24T11:08:54.348Z,967.50
2018-04-24T11:09:54.282Z,765.00
2018-04-24T11:10:54.279Z,725.63
2018-04-24T11:11:54.143Z,759.38
2018-04-24T11:12:54.071Z,748.13
2018-04-24T11:13:54.003Z,742.50
2018-04-24T11:14:53.934Z,793.13
2018-04-24T11:15:53.865Z,798.75
2018-04-24T11:16:53.796Z,765.00
2018-04-24T11:17:53.727Z,871.88
2018-04-24T11:18:53.658Z,781.88
2018-04-24T11:19:53.590Z,793.13
2018-04-24T11:20:53.519Z,826.88
2018-04-24T11:21:53.452Z,838.13
2018-04-24T11:22:53.383Z,849.38
2018-04-24T11:23:53.316Z,871.88
2018-04-24T11:24:53.246Z,984.38
2018-04-24T11:25:53.176Z,990.00
2018-04-24T11:26:53.110Z,1113.75
2018-04-24T11:27:53.042Z,1243.13
2018-04-24T11:28:52.974Z,1901.25
2018-04-24T11:29:52.905Z,1395.00
2018-04-24T11:30:52.840Z,1057.50
2018-04-24T11:31:52.770Z,1001.25
2018-04-24T11:32:52.705Z,1068.75
2018-04-24T11:33:52.633Z,1012.50
2018-04-24T11:34:52.570Z,1141.88
2018-04-24T11:35:52.499Z,1282.50
2018-04-24T11:36:52.429Z,1389.38
2018-04-24T11:37:52.361Z,2030.63
2018-04-24T11:38:52.293Z,1974.38
2018-04-24T11:39:52.229Z,1856.25
2018-04-24T11:40:52.157Z,1417.50
2018-04-24T11:41:52.090Z,1676.25
2018-04-24T11:42:52.022Z,1378.13
2018-04-24T11:43:52.040Z,1299.38
2018-04-24T11:44:51.888Z,1355.63
2018-04-24T11:45:51.820Z,1546.88
2018-04-24T11:46:51.753Z,1406.25
2018-04-24T11:47:51.687Z,1496.25
2018-04-24T11:48:51.617Z,1518.75
2018-04-24T11:49:51.550Z,1625.63
2018-04-24T11:50:51.483Z,1546.88
2018-04-24T11:51:51.415Z,1800.00
2018-04-24T11:52:51.350Z,2373.75
2018-04-24T11:53:51.281Z,2475.00
2018-04-24T11:54:51.214Z,2317.50
2018-04-24T11:55:51.148Z,2458.13
2018-04-24T11:56:51.084Z,2396.25
2018-04-24T11:57:51.015Z,2148.75
2018-04-24T11:58:50.948Z,2396.25
2018-04-24T11:59:50.882Z,1895.63
2018-04-24T12:00:50.816Z,2165.63
2018-04-24T12:01:50.754Z,2441.25
2018-04-24T12:02:50.755Z,1991.25
2018-04-24T12:03:50.619Z,2053.13
2018-04-24T12:04:50.553Z,2227.50
2018-04-24T12:05:50.487Z,2385.00
2018-04-24T12:06:50.421Z,2103.75
2018-04-24T12:07:50.357Z,1901.25
2018-04-24T12:08:50.291Z,1884.38
2018-04-24T12:09:50.226Z,1631.25
2018-04-24T12:10:50.160Z,1321.88
2018-04-24T12:11:50.096Z,1260.00
2018-04-24T12:12:50.032Z,1085.63
2018-04-24T12:13:49.965Z,1220.63
2018-04-24T12:14:49.898Z,1462.50
2018-04-24T12:15:50.008Z,1878.75
2018-04-24T12:16:49.768Z,1816.88
2018-04-24T12:17:49.702Z,2160.00
2018-04-24T12:18:49.636Z,2030.63
2018-04-24T12:19:49.570Z,2008.13
2018-04-24T12:20:49.505Z,1878.75
2018-04-24T12:21:49.440Z,2413.13
2018-04-24T12:22:49.375Z,2598.75
2018-04-24T12:23:49.309Z,2379.38
2018-04-24T12:24:49.242Z,2115.00
2018-04-24T12:25:49.184Z,2289.38
2018-04-24T12:26:49.113Z,1704.38
2018-04-24T12:27:49.047Z,1490.63
2018-04-24T12:28:48.981Z,1299.38
2018-04-24T12:29:48.917Z,1473.75
2018-04-24T12:30:48.859Z,2086.88
2018-04-24T12:31:48.786Z,3144.38
2018-04-24T12:32:48.721Z,2221.88
2018-04-24T12:33:48.656Z,2323.13
2018-04-24T12:34:48.591Z,2317.50
2018-04-24T12:35:48.526Z,2745.00
2018-04-24T12:36:48.462Z,2705.63
2018-04-24T12:37:48.398Z,3240.00
2018-04-24T12:38:48.386Z,3031.88
2018-04-24T12:39:48.268Z,2030.63
2018-04-24T12:40:48.202Z,2418.75
2018-04-24T12:41:48.140Z,2435.63
2018-04-24T12:42:48.075Z,2947.50
2018-04-24T12:43:48.012Z,2885.63
2018-04-24T12:44:47.947Z,3127.50